EWG267C EDDH-EGLL
Flight info
| Callsign | EWG267C |
|---|---|
| Flight time | N/A |
| Altitude | 38000 |
| Route | WSN5G WSN N125 ITMIZ DCT PARYD DCT ABNED L980 LOGAN |
| Aircraft | A20N/M-SDE2E3FGHIRWXY/LB1 |
Departure
| Time | 2026-04-22 17:49 |
|---|---|
| Airport | Hamburg Helmut Schmidt Airport (EDDH) |
Arrival
| Time | N/A |
|---|---|
| Airport | London Heathrow Airport (EGLL) |
| Time | Latitude | Longitude | Altitude | Speed | Heading |
|---|---|---|---|---|---|
| 2026-04-22 17:19 | 53.63208 | 10.00043 | 48 ft | 0 kts | 157° |
| 2026-04-22 17:43 | 53.63205 | 10.00045 | 48 ft | 3 kts | 157° |
| 2026-04-22 17:43 | 53.63199 | 10.00049 | 47 ft | 0 kts | 157° |
| 2026-04-22 17:44 | 53.63153 | 10.00037 | 48 ft | 0 kts | 225° |
| 2026-04-22 17:44 | 53.63136 | 9.99999 | 47 ft | 7 kts | 243° |
| 2026-04-22 17:44 | 53.63105 | 9.99922 | 47 ft | 10 kts | 206° |
| 2026-04-22 17:44 | 53.63056 | 9.99913 | 46 ft | 0 kts | 141° |
| 2026-04-22 17:45 | 53.63048 | 9.99920 | 44 ft | 3 kts | 151° |
| 2026-04-22 17:45 | 53.63014 | 9.99946 | 45 ft | 8 kts | 155° |
| 2026-04-22 17:45 | 53.62957 | 9.99991 | 45 ft | 9 kts | 160° |
| 2026-04-22 17:45 | 53.62902 | 9.99933 | 45 ft | 11 kts | 242° |
| 2026-04-22 17:46 | 53.62893 | 9.99901 | 45 ft | 0 kts | 244° |
| 2026-04-22 17:46 | 53.62892 | 9.99898 | 43 ft | 0 kts | 243° |
| 2026-04-22 17:47 | 53.62891 | 9.99897 | 43 ft | 1 kts | 243° |
| 2026-04-22 17:47 | 53.62884 | 9.99872 | 46 ft | 5 kts | 243° |
| 2026-04-22 17:47 | 53.62864 | 9.99769 | 46 ft | 12 kts | 276° |
| 2026-04-22 17:48 | 53.62907 | 9.99703 | 47 ft | 14 kts | 332° |
| 2026-04-22 17:48 | 53.63273 | 9.99376 | 50 ft | 85 kts | 332° |
| 2026-04-22 17:48 | 53.63956 | 9.98789 | 50 ft | 133 kts | 333° |
| 2026-04-22 17:48 | 53.64896 | 9.98016 | 168 ft | 157 kts | 332° |
| 2026-04-22 17:49 | 53.65826 | 9.97318 | 1014 ft | 139 kts | 334° |
| 2026-04-22 17:49 | 53.66717 | 9.96593 | 1492 ft | 151 kts | 332° |
| 2026-04-22 17:49 | 53.67680 | 9.95718 | 1900 ft | 165 kts | 331° |
| 2026-04-22 17:49 | 53.68745 | 9.94748 | 2237 ft | 183 kts | 332° |
| 2026-04-22 17:50 | 53.69924 | 9.93698 | 2560 ft | 198 kts | 332° |
| 2026-04-22 17:50 | 53.70997 | 9.92194 | 3001 ft | 206 kts | 303° |
| 2026-04-22 17:50 | 53.71431 | 9.89893 | 3652 ft | 211 kts | 272° |
| 2026-04-22 17:50 | 53.71111 | 9.87431 | 4326 ft | 223 kts | 255° |
| 2026-04-22 17:51 | 53.70585 | 9.84820 | 4769 ft | 247 kts | 254° |
| 2026-04-22 17:51 | 53.70002 | 9.81940 | 4988 ft | 268 kts | 254° |
| 2026-04-22 17:51 | 53.69402 | 9.78974 | 4995 ft | 268 kts | 254° |
| 2026-04-22 17:51 | 53.68803 | 9.75996 | 5002 ft | 270 kts | 254° |
| 2026-04-22 17:52 | 53.68203 | 9.72968 | 5379 ft | 273 kts | 254° |
| 2026-04-22 17:52 | 53.67585 | 9.69924 | 6360 ft | 274 kts | 251° |
| 2026-04-22 17:52 | 53.66869 | 9.66922 | 7355 ft | 279 kts | 250° |
| 2026-04-22 17:52 | 53.66121 | 9.63884 | 8278 ft | 284 kts | 250° |
| 2026-04-22 17:53 | 53.65366 | 9.60818 | 9235 ft | 288 kts | 250° |
| 2026-04-22 17:53 | 53.64594 | 9.57667 | 10175 ft | 293 kts | 250° |
| 2026-04-22 17:53 | 53.63805 | 9.54425 | 10860 ft | 308 kts | 250° |
| 2026-04-22 17:53 | 53.62966 | 9.50961 | 11197 ft | 331 kts | 250° |
| 2026-04-22 17:54 | 53.62064 | 9.47246 | 11642 ft | 349 kts | 250° |
| 2026-04-22 17:54 | 53.61134 | 9.43436 | 12459 ft | 354 kts | 249° |
| 2026-04-22 17:54 | 53.60190 | 9.39573 | 13271 ft | 360 kts | 249° |
| 2026-04-22 17:54 | 53.59230 | 9.35647 | 14076 ft | 365 kts | 249° |
| 2026-04-22 17:55 | 53.58584 | 9.33010 | 14564 ft | 368 kts | 249° |
| 2026-04-22 17:55 | 53.57265 | 9.27639 | 15558 ft | 374 kts | 249° |
| 2026-04-22 17:55 | 53.56263 | 9.23572 | 16304 ft | 378 kts | 249° |
| 2026-04-22 17:55 | 53.55262 | 9.19520 | 17031 ft | 382 kts | 248° |
| 2026-04-22 17:56 | 53.54234 | 9.15363 | 17754 ft | 386 kts | 248° |
| 2026-04-22 17:56 | 53.53192 | 9.11160 | 18465 ft | 391 kts | 248° |
| 2026-04-22 17:56 | 53.52141 | 9.06929 | 19105 ft | 394 kts | 248° |
| 2026-04-22 17:56 | 53.51079 | 9.02659 | 19745 ft | 397 kts | 248° |
| 2026-04-22 17:57 | 53.50006 | 8.98356 | 20377 ft | 401 kts | 248° |
| 2026-04-22 17:57 | 53.48922 | 8.94014 | 21007 ft | 404 kts | 248° |
| 2026-04-22 17:57 | 53.47827 | 8.89641 | 21599 ft | 408 kts | 248° |
| 2026-04-22 17:57 | 53.46720 | 8.85230 | 22214 ft | 411 kts | 247° |
| 2026-04-22 17:58 | 53.45602 | 8.80782 | 22815 ft | 415 kts | 247° |
| 2026-04-22 17:58 | 53.44474 | 8.76303 | 23402 ft | 419 kts | 247° |
| 2026-04-22 17:58 | 53.43334 | 8.71785 | 23984 ft | 423 kts | 247° |
| 2026-04-22 17:58 | 53.42194 | 8.67280 | 24432 ft | 427 kts | 247° |
| 2026-04-22 17:59 | 53.41027 | 8.62674 | 24890 ft | 431 kts | 246° |
| 2026-04-22 17:59 | 53.39850 | 8.58038 | 25348 ft | 434 kts | 246° |
| 2026-04-22 17:59 | 53.38661 | 8.53364 | 25803 ft | 438 kts | 246° |
| 2026-04-22 17:59 | 53.37460 | 8.48652 | 26256 ft | 441 kts | 246° |
| 2026-04-22 18:00 | 53.36643 | 8.45454 | 26552 ft | 444 kts | 246° |
| 2026-04-22 18:00 | 53.35022 | 8.39126 | 27129 ft | 448 kts | 246° |
| 2026-04-22 18:00 | 53.33788 | 8.34317 | 27530 ft | 451 kts | 246° |
| 2026-04-22 18:00 | 53.32543 | 8.29475 | 27957 ft | 454 kts | 246° |
| 2026-04-22 18:01 | 53.31288 | 8.24604 | 28357 ft | 457 kts | 246° |
| 2026-04-22 18:01 | 53.30025 | 8.19716 | 28764 ft | 460 kts | 245° |
| 2026-04-22 18:01 | 53.28752 | 8.14797 | 29172 ft | 462 kts | 245° |
| 2026-04-22 18:01 | 53.27469 | 8.09856 | 29538 ft | 465 kts | 245° |
| 2026-04-22 18:02 | 53.26179 | 8.04896 | 29911 ft | 467 kts | 245° |
| 2026-04-22 18:02 | 53.24877 | 7.99899 | 30274 ft | 470 kts | 245° |
| 2026-04-22 18:02 | 53.23567 | 7.94885 | 30612 ft | 472 kts | 245° |
| 2026-04-22 18:02 | 53.22267 | 7.89921 | 30929 ft | 474 kts | 245° |
| 2026-04-22 18:03 | 53.20937 | 7.84851 | 31231 ft | 477 kts | 245° |
| 2026-04-22 18:03 | 53.19601 | 7.79771 | 31558 ft | 479 kts | 245° |
| 2026-04-22 18:03 | 53.18263 | 7.74697 | 31964 ft | 478 kts | 245° |
| 2026-04-22 18:03 | 53.16921 | 7.69620 | 32363 ft | 478 kts | 245° |
| 2026-04-22 18:04 | 53.15580 | 7.64554 | 32778 ft | 477 kts | 245° |
| 2026-04-22 18:04 | 53.14238 | 7.59500 | 33170 ft | 477 kts | 245° |